createdAt,value
2022-08-30T00:02:53.375Z,68.80
2022-08-30T00:07:55.837Z,68.60
2022-08-30T00:12:59.898Z,68.50
2022-08-30T00:18:02.246Z,68.60
2022-08-30T00:23:05.420Z,68.20
2022-08-30T00:28:09.705Z,68.10
2022-08-30T00:33:13.802Z,68.20
2022-08-30T00:38:16.362Z,68.30
2022-08-30T00:43:22.931Z,68.30
2022-08-30T00:48:26.670Z,68.50
2022-08-30T00:53:34.237Z,68.40
2022-08-30T00:58:42.392Z,68.70
2022-08-30T01:03:45.474Z,68.80
2022-08-30T01:08:48.473Z,68.80
2022-08-30T01:13:54.773Z,69.00
2022-08-30T01:18:59.053Z,69.30
2022-08-30T01:24:04.994Z,69.40
2022-08-30T01:29:10.571Z,69.40
2022-08-30T01:34:13.599Z,69.50
2022-08-30T01:39:18.621Z,69.40
2022-08-30T01:44:21.037Z,69.60
2022-08-30T01:49:27.835Z,69.40
2022-08-30T01:54:38.045Z,69.40
2022-08-30T01:59:43.796Z,69.50
2022-08-30T02:04:46.530Z,69.50
2022-08-30T02:09:51.023Z,69.50
2022-08-30T02:14:53.400Z,69.80
2022-08-30T02:19:55.820Z,69.70
2022-08-30T02:24:59.742Z,69.90
2022-08-30T02:30:02.713Z,70.00
2022-08-30T02:35:06.641Z,70.00
2022-08-30T02:40:12.506Z,70.00
2022-08-30T02:45:15.871Z,70.20
2022-08-30T02:50:20.116Z,70.10
2022-08-30T02:55:24.477Z,70.10
2022-08-30T03:00:26.897Z,70.30
2022-08-30T03:05:29.765Z,70.10
2022-08-30T03:10:33.643Z,70.30
2022-08-30T03:15:37.734Z,70.40
2022-08-30T03:20:41.860Z,70.50
2022-08-30T03:25:49.868Z,70.60
2022-08-30T03:30:52.419Z,70.60
2022-08-30T03:35:54.879Z,70.50
2022-08-30T03:40:58.748Z,70.60
2022-08-30T03:46:02.695Z,70.80
2022-08-30T03:51:06.130Z,71.00
2022-08-30T03:56:10.166Z,71.20
2022-08-30T04:01:12.727Z,71.50
2022-08-30T04:06:15.173Z,71.50
2022-08-30T04:11:18.996Z,71.60
2022-08-30T04:16:21.693Z,72.00
2022-08-30T04:21:24.266Z,72.10
2022-08-30T04:26:29.483Z,72.20
2022-08-30T04:31:32.283Z,72.30
2022-08-30T04:36:34.687Z,72.40
2022-08-30T04:41:38.549Z,72.50
2022-08-30T04:46:44.582Z,72.60
2022-08-30T04:51:47.292Z,72.40
2022-08-30T04:56:51.149Z,72.50
2022-08-30T05:01:53.704Z,72.90
2022-08-30T05:06:56.291Z,72.80
2022-08-30T05:12:00.341Z,72.70
2022-08-30T05:17:02.722Z,73.50
2022-08-30T05:22:05.551Z,73.70
2022-08-30T05:27:09.611Z,72.50
2022-08-30T05:32:11.988Z,71.70
2022-08-30T05:37:14.393Z,71.20
2022-08-30T05:42:18.313Z,71.10
2022-08-30T05:47:21.764Z,71.40
2022-08-30T05:52:24.406Z,71.40
2022-08-30T05:57:28.284Z,71.60
2022-08-30T06:02:30.878Z,72.00
2022-08-30T06:07:33.368Z,72.10
2022-08-30T06:12:37.190Z,72.20
2022-08-30T06:17:39.614Z,72.20
2022-08-30T06:22:42.111Z,72.20
2022-08-30T06:27:46.016Z,72.40
2022-08-30T06:32:48.969Z,72.70
2022-08-30T06:37:51.705Z,73.10
2022-08-30T06:42:55.754Z,74.20
2022-08-30T06:47:59.511Z,73.80
2022-08-30T06:53:01.881Z,71.70
2022-08-30T06:58:07.053Z,69.40
2022-08-30T07:03:09.577Z,67.60
2022-08-30T07:08:12.276Z,68.30
2022-08-30T07:13:17.592Z,68.80
2022-08-30T07:18:20.978Z,67.50
2022-08-30T07:23:23.759Z,66.50
2022-08-30T07:28:27.753Z,64.10
2022-08-30T07:33:33.611Z,61.90
2022-08-30T07:38:36.654Z,60.10
2022-08-30T07:43:40.686Z,58.00
2022-08-30T07:48:44.190Z,56.10
2022-08-30T07:53:47.787Z,54.00
2022-08-30T07:58:52.461Z,52.50
2022-08-30T08:03:56.942Z,50.60
2022-08-30T08:08:59.341Z,48.00
2022-08-30T08:14:05.705Z,47.10
2022-08-30T08:19:08.249Z,42.70
2022-08-30T08:24:10.721Z,45.50
2022-08-30T08:29:14.857Z,41.70
2022-08-30T08:34:17.342Z,45.10
2022-08-30T08:39:22.222Z,44.10
2022-08-30T08:44:37.000Z,42.50
2022-08-30T08:49:41.579Z,42.80
2022-08-30T08:54:51.393Z,43.60
2022-08-30T08:59:55.379Z,46.10
2022-08-30T09:05:01.326Z,47.70
2022-08-30T09:10:05.237Z,47.70
2022-08-30T09:15:20.808Z,47.00
2022-08-30T09:20:35.441Z,43.80
2022-08-30T09:25:42.514Z,45.40
2022-08-30T09:31:03.712Z,46.50
2022-08-30T09:36:21.317Z,47.20
2022-08-30T09:41:36.807Z,47.80
2022-08-30T09:46:46.957Z,48.30
2022-08-30T09:51:55.710Z,46.10
2022-08-30T09:57:11.657Z,47.20
2022-08-30T10:02:36.374Z,47.50
2022-08-30T10:07:46.427Z,47.40
2022-08-30T10:13:00.648Z,47.00
2022-08-30T10:18:13.058Z,46.90
2022-08-30T10:23:19.888Z,46.90
2022-08-30T10:28:30.973Z,48.10
2022-08-30T10:33:39.059Z,47.70
2022-08-30T10:38:46.532Z,48.00
2022-08-30T10:43:55.476Z,48.90
2022-08-30T10:49:02.337Z,48.90
2022-08-30T10:54:11.434Z,48.10
2022-08-30T10:59:18.007Z,48.20
2022-08-30T11:05:06.251Z,48.50
2022-08-30T11:10:28.766Z,46.90
2022-08-30T11:15:35.562Z,46.50
2022-08-30T11:20:45.825Z,47.80
2022-08-30T11:25:53.595Z,47.10
2022-08-30T11:31:07.988Z,47.60
2022-08-30T11:36:13.299Z,45.80
2022-08-30T11:41:32.675Z,46.70
2022-08-30T11:46:40.486Z,47.30
2022-08-30T11:52:26.314Z,47.80
2022-08-30T11:57:31.343Z,48.00
2022-08-30T12:02:52.201Z,46.30
2022-08-30T12:08:01.496Z,47.00
2022-08-30T12:13:06.365Z,46.60
2022-08-30T12:18:15.273Z,46.10
2022-08-30T12:23:27.962Z,46.60
2022-08-30T12:28:30.533Z,47.10
2022-08-30T12:33:43.088Z,47.10
2022-08-30T12:38:47.122Z,47.00
2022-08-30T12:43:54.947Z,47.80
2022-08-30T12:48:59.224Z,47.80
2022-08-30T12:54:29.973Z,47.70
2022-08-30T12:59:54.072Z,47.40
2022-08-30T13:05:32.374Z,45.80
2022-08-30T13:10:36.661Z,46.20
2022-08-30T13:15:47.910Z,47.50
2022-08-30T13:20:50.740Z,47.80
2022-08-30T13:25:54.995Z,47.70
2022-08-30T13:30:58.131Z,48.50
2022-08-30T13:36:01.458Z,48.30
2022-08-30T13:41:05.900Z,48.40
2022-08-30T13:46:09.529Z,48.60
2022-08-30T13:51:13.474Z,46.00
2022-08-30T13:56:17.805Z,45.80
2022-08-30T14:01:20.423Z,47.60
2022-08-30T14:06:33.737Z,46.50
2022-08-30T14:11:38.915Z,47.30
2022-08-30T14:16:43.759Z,45.90
2022-08-30T14:21:46.579Z,45.70
2022-08-30T14:26:53.480Z,47.00
2022-08-30T14:31:56.582Z,47.20
2022-08-30T14:37:01.237Z,47.00
2022-08-30T14:42:07.615Z,47.40
2022-08-30T14:47:14.110Z,47.70
2022-08-30T14:52:24.249Z,47.80
2022-08-30T14:57:28.870Z,47.70
2022-08-30T15:02:31.330Z,47.70
2022-08-30T15:07:33.895Z,47.60
2022-08-30T15:12:38.048Z,47.30
2022-08-30T15:17:41.301Z,46.20
2022-08-30T15:22:43.889Z,46.60
2022-08-30T15:27:50.535Z,47.20
2022-08-30T15:32:54.562Z,47.30
2022-08-30T15:37:57.230Z,46.90
2022-08-30T15:43:03.038Z,46.80
2022-08-30T15:48:07.787Z,47.00
2022-08-30T15:53:10.571Z,47.30
2022-08-30T15:58:14.700Z,47.40
2022-08-30T16:03:17.410Z,47.80
2022-08-30T16:08:25.474Z,47.60
2022-08-30T16:13:30.097Z,47.70
2022-08-30T16:18:33.095Z,47.70
2022-08-30T16:23:39.141Z,47.50
2022-08-30T16:28:43.650Z,47.40
2022-08-30T16:33:46.762Z,47.30
2022-08-30T16:38:53.526Z,47.40
2022-08-30T16:44:03.616Z,47.80
2022-08-30T16:49:08.800Z,47.50
2022-08-30T16:54:11.732Z,47.60
2022-08-30T16:59:15.853Z,47.60
2022-08-30T17:04:19.582Z,47.60
2022-08-30T17:09:23.574Z,47.90
2022-08-30T17:14:29.934Z,47.80
2022-08-30T17:19:37.928Z,47.90
2022-08-30T17:24:43.696Z,47.80
2022-08-30T17:29:47.675Z,47.90
2022-08-30T17:34:50.898Z,48.00
2022-08-30T17:39:54.985Z,48.00
2022-08-30T17:45:07.985Z,48.00
2022-08-30T17:50:12.641Z,48.20
2022-08-30T17:55:15.245Z,48.30
2022-08-30T18:00:19.568Z,48.20
2022-08-30T18:05:24.519Z,48.20
2022-08-30T18:10:34.421Z,48.20
2022-08-30T18:15:44.180Z,48.30
2022-08-30T18:20:47.429Z,48.40
2022-08-30T18:25:57.538Z,48.50
2022-08-30T18:31:02.405Z,48.60
2022-08-30T18:36:07.831Z,48.60
2022-08-30T18:41:13.552Z,48.70
2022-08-30T18:46:20.932Z,48.90
2022-08-30T18:51:29.209Z,49.00
2022-08-30T18:56:37.329Z,49.10
2022-08-30T19:01:49.780Z,49.30
2022-08-30T19:06:59.293Z,49.40
2022-08-30T19:12:09.802Z,49.60
2022-08-30T19:17:23.983Z,49.70
2022-08-30T19:28:15.131Z,50.10
2022-08-30T19:33:34.434Z,50.20
2022-08-30T19:38:56.717Z,50.50
2022-08-30T19:44:01.240Z,50.70
2022-08-30T19:49:06.475Z,50.60
2022-08-30T19:54:09.322Z,50.80
2022-08-30T19:59:11.915Z,50.90
2022-08-30T20:04:16.612Z,51.00
2022-08-30T20:09:20.469Z,51.30
2022-08-30T20:14:24.330Z,51.40
2022-08-30T20:19:29.399Z,51.70
2022-08-30T20:24:32.189Z,52.00
2022-08-30T20:24:33.341Z,50.00
2022-08-30T20:29:36.327Z,52.00
2022-08-30T20:34:40.375Z,52.10
2022-08-30T20:39:43.033Z,52.20
2022-08-30T20:44:47.515Z,52.30
2022-08-30T20:49:51.763Z,52.40
2022-08-30T20:54:54.600Z,52.60
2022-08-30T20:59:59.322Z,52.50
2022-08-30T21:05:04.549Z,52.70
2022-08-30T21:10:10.330Z,53.00
2022-08-30T21:15:36.473Z,53.10
2022-08-30T21:20:36.859Z,53.20
2022-08-30T21:25:40.384Z,53.50
2022-08-30T21:30:43.633Z,53.50
2022-08-30T21:35:48.123Z,53.60
2022-08-30T21:40:51.052Z,53.80
2022-08-30T21:45:53.699Z,53.80
2022-08-30T21:50:57.693Z,53.90
2022-08-30T21:56:06.858Z,54.20
2022-08-30T22:01:11.008Z,54.50
2022-08-30T22:06:15.999Z,54.80
2022-08-30T22:11:22.433Z,55.80
2022-08-30T22:16:26.800Z,55.60
2022-08-30T22:21:33.284Z,55.80
2022-08-30T22:26:36.635Z,56.00
2022-08-30T22:31:41.577Z,56.00
2022-08-30T22:36:45.704Z,55.90
2022-08-30T22:41:48.204Z,56.00
2022-08-30T22:46:50.780Z,55.90
2022-08-30T22:51:54.737Z,55.90
2022-08-30T22:56:57.196Z,56.10
2022-08-30T23:01:59.750Z,56.10
2022-08-30T23:07:04.019Z,56.10
2022-08-30T23:12:06.611Z,56.30
2022-08-30T23:17:08.982Z,56.30
2022-08-30T23:22:13.337Z,56.40
2022-08-30T23:27:16.162Z,56.80
2022-08-30T23:32:19.702Z,56.80
2022-08-30T23:37:23.785Z,56.90
2022-08-30T23:42:26.216Z,57.20
2022-08-30T23:47:28.628Z,57.20
2022-08-30T23:52:37.006Z,57.20
2022-08-30T23:57:39.460Z,57.50
